Aviation Digital Data Service (ADDS)

Output produced by METARs form (0318 UTC 20 March 2019)
found at http://www.aviationweather.gov/metar/data/
 
METAR text: FDMS 191400Z 07005KT 9999 FEW035 28/19 Q1013 NOSIG
Conditions at: FDMS (MANZINI/MATSAPA , SZ) observed 1400 UTC 19 March 2019
Temperature: 28.0°C (82°F)
Dewpoint: 19.0°C (66°F) [RH = 58%]
Pressure (altimeter): 29.91 inches Hg (1013.0 mb)
Winds: from the ENE (70 degrees) at 6 MPH (5 knots; 2.6 m/s)
Visibility: 6 or more miles (10+ km)
Ceiling: at least 12,000 feet AGL
Clouds: few clouds at 3500 feet AGL
Weather: no significant weather observed at this time

METAR text: FDMS 191300Z 16007KT 9999 SCT035 27/19 Q1013 NOSIG
Conditions at: FDMS (MANZINI/MATSAPA , SZ) observed 1300 UTC 19 March 2019
Temperature: 27.0°C (81°F)
Dewpoint: 19.0°C (66°F) [RH = 62%]
Pressure (altimeter): 29.91 inches Hg (1013.0 mb)
Winds: from the SSE (160 degrees) at 8 MPH (7 knots; 3.6 m/s)
Visibility: 6 or more miles (10+ km)
Ceiling: at least 12,000 feet AGL
Clouds: scattered clouds at 3500 feet AGL
Weather: no significant weather observed at this time

METAR text: FDMS 191100Z 18006KT 9999 FEW035 28/17 Q1015 NOSIG
Conditions at: FDMS (MANZINI/MATSAPA , SZ) observed 1100 UTC 19 March 2019
Temperature: 28.0°C (82°F)
Dewpoint: 17.0°C (63°F) [RH = 51%]
Pressure (altimeter): 29.97 inches Hg (1015.0 mb)
Winds: from the S (180 degrees) at 7 MPH (6 knots; 3.1 m/s)
Visibility: 6 or more miles (10+ km)
Ceiling: at least 12,000 feet AGL
Clouds: few clouds at 3500 feet AGL
Weather: no significant weather observed at this time

METAR text: FDMS 191000Z 16007KT 9999 FEW035 27/17 Q1015 NOSIG
Conditions at: FDMS (MANZINI/MATSAPA , SZ) observed 1000 UTC 19 March 2019
Temperature: 27.0°C (81°F)
Dewpoint: 17.0°C (63°F) [RH = 54%]
Pressure (altimeter): 29.97 inches Hg (1015.0 mb)
Winds: from the SSE (160 degrees) at 8 MPH (7 knots; 3.6 m/s)
Visibility: 6 or more miles (10+ km)
Ceiling: at least 12,000 feet AGL
Clouds: few clouds at 3500 feet AGL
Weather: no significant weather observed at this time

METAR text: FDMS 190900Z 17007KT 9999 FEW035 27/18 Q1016 NOSIG
Conditions at: FDMS (MANZINI/MATSAPA , SZ) observed 0900 UTC 19 March 2019
Temperature: 27.0°C (81°F)
Dewpoint: 18.0°C (64°F) [RH = 58%]
Pressure (altimeter): 30.00 inches Hg (1016.0 mb)
Winds: from the S (170 degrees) at 8 MPH (7 knots; 3.6 m/s)
Visibility: 6 or more miles (10+ km)
Ceiling: at least 12,000 feet AGL
Clouds: few clouds at 3500 feet AGL
Weather: no significant weather observed at this time

METAR text: FDMS 190800Z 30005KT CAVOK 26/18 Q1016 NOSIG
Conditions at: FDMS (MANZINI/MATSAPA , SZ) observed 0800 UTC 19 March 2019
Temperature: 26.0°C (79°F)
Dewpoint: 18.0°C (64°F) [RH = 61%]
Pressure (altimeter): 30.00 inches Hg (1016.0 mb)
Winds: from the WNW (300 degrees) at 6 MPH (5 knots; 2.6 m/s)
Visibility: 6 or more miles (10+ km)
Ceiling: ceiling and visibility are OK
Clouds: unknown
Weather: no significant weather observed at this time

METAR text: FDMS 190700Z VRB02KT CAVOK 24/18 Q1016 NOSIG
Conditions at: FDMS (MANZINI/MATSAPA , SZ) observed 0700 UTC 19 March 2019
Temperature: 24.0°C (75°F)
Dewpoint: 18.0°C (64°F) [RH = 69%]
Pressure (altimeter): 30.00 inches Hg (1016.0 mb)
Winds: variable direction winds at 2 MPH (2 knots; 1.0 m/s)
Visibility: 6 or more miles (10+ km)
Ceiling: ceiling and visibility are OK
Clouds: unknown
Weather: no significant weather observed at this time

METAR text: FDMS 190600Z 09003KT 9999 SCT025 BKN035 19/13 Q1026 NOSIG
Conditions at: FDMS (MANZINI/MATSAPA , SZ) observed 0600 UTC 19 March 2019
Temperature: 19.0°C (66°F)
Dewpoint: 13.0°C (55°F) [RH = 68%]
Pressure (altimeter): 30.30 inches Hg (1026.0 mb)
Winds: from the E (90 degrees) at 3 MPH (3 knots; 1.5 m/s)
Visibility: 6 or more miles (10+ km)
Ceiling: 3500 feet AGL
Clouds: scattered clouds at 2500 feet AGL
broken clouds at 3500 feet AGL
Weather: no significant weather observed at this time